N610DS KBED-KBTV
Flight info
| Callsign | N610DS |
|---|---|
| Flight time | N/A |
| Altitude | 20000 |
| Route | HYLND LBNON GRNMT BTV |
| Aircraft | B60T/L-SDFGRY/C |
Departure
| Time | 2026-05-07 18:05 |
|---|---|
| Airport | Laurence G Hanscom Field (KBED) |
Arrival
| Time | N/A |
|---|---|
| Airport | Patrick Leahy Burlington International Airport (KBTV) |
| Time | Latitude | Longitude | Altitude | Speed | Heading |
|---|---|---|---|---|---|
| 2026-05-07 17:59 | 42.46143 | -71.29452 | 133 ft | 0 kts | 213° |
| 2026-05-07 18:03 | 42.46140 | -71.29460 | 142 ft | 4 kts | 277° |
| 2026-05-07 18:03 | 42.46194 | -71.29444 | 133 ft | 9 kts | 350° |
| 2026-05-07 18:04 | 42.46247 | -71.29489 | 132 ft | 14 kts | 309° |
| 2026-05-07 18:04 | 42.46315 | -71.29607 | 130 ft | 10 kts | 307° |
| 2026-05-07 18:04 | 42.46389 | -71.29639 | 129 ft | 19 kts | 38° |
| 2026-05-07 18:04 | 42.46673 | -71.29350 | 130 ft | 91 kts | 38° |
| 2026-05-07 18:05 | 42.47281 | -71.28636 | 427 ft | 127 kts | 41° |
| 2026-05-07 18:05 | 42.47897 | -71.27620 | 1009 ft | 150 kts | 50° |
| 2026-05-07 18:05 | 42.48699 | -71.26786 | 1794 ft | 146 kts | 9° |
| 2026-05-07 18:05 | 42.49699 | -71.26637 | 2487 ft | 144 kts | 352° |
| 2026-05-07 18:06 | 42.50708 | -71.26701 | 3244 ft | 145 kts | 352° |
| 2026-05-07 18:06 | 42.51720 | -71.26742 | 3964 ft | 146 kts | 353° |
| 2026-05-07 18:06 | 42.52735 | -71.26766 | 4698 ft | 146 kts | 351° |
| 2026-05-07 18:06 | 42.53756 | -71.26796 | 5468 ft | 148 kts | 352° |
| 2026-05-07 18:07 | 42.54784 | -71.26813 | 6263 ft | 148 kts | 352° |
| 2026-05-07 18:07 | 42.55818 | -71.26841 | 7003 ft | 149 kts | 349° |
| 2026-05-07 18:07 | 42.56854 | -71.26884 | 7748 ft | 149 kts | 346° |
| 2026-05-07 18:07 | 42.57885 | -71.26923 | 8467 ft | 151 kts | 344° |
| 2026-05-07 18:08 | 42.58942 | -71.26962 | 9203 ft | 153 kts | 342° |
| 2026-05-07 18:08 | 42.60008 | -71.26999 | 9901 ft | 154 kts | 340° |
| 2026-05-07 18:08 | 42.61098 | -71.27035 | 10549 ft | 155 kts | 340° |
| 2026-05-07 18:08 | 42.62187 | -71.27069 | 11191 ft | 157 kts | 339° |
| 2026-05-07 18:09 | 42.63288 | -71.27105 | 11823 ft | 159 kts | 338° |
| 2026-05-07 18:09 | 42.64393 | -71.27141 | 12430 ft | 162 kts | 338° |
| 2026-05-07 18:09 | 42.65531 | -71.27179 | 13066 ft | 165 kts | 337° |
| 2026-05-07 18:09 | 42.66691 | -71.27217 | 13690 ft | 168 kts | 336° |
| 2026-05-07 18:10 | 42.67867 | -71.27254 | 14256 ft | 170 kts | 336° |
| 2026-05-07 18:10 | 42.69053 | -71.27288 | 14826 ft | 171 kts | 336° |
| 2026-05-07 18:10 | 42.70244 | -71.27323 | 15400 ft | 172 kts | 336° |
| 2026-05-07 18:10 | 42.71442 | -71.27356 | 15971 ft | 172 kts | 336° |
| 2026-05-07 18:11 | 42.72664 | -71.27402 | 16444 ft | 179 kts | 336° |
| 2026-05-07 18:11 | 42.73499 | -71.27435 | 16789 ft | 183 kts | 337° |
| 2026-05-07 18:11 | 42.75232 | -71.27487 | 17520 ft | 188 kts | 338° |
| 2026-05-07 18:11 | 42.76546 | -71.27523 | 18082 ft | 190 kts | 338° |
| 2026-05-07 18:12 | 42.77851 | -71.27619 | 18565 ft | 177 kts | 323° |
| 2026-05-07 18:12 | 42.78803 | -71.28275 | 19050 ft | 144 kts | 298° |
| 2026-05-07 18:12 | 42.79596 | -71.29105 | 19566 ft | 144 kts | 298° |
| 2026-05-07 18:12 | 42.80405 | -71.29946 | 19956 ft | 155 kts | 298° |
| 2026-05-07 18:13 | 42.81316 | -71.30954 | 19982 ft | 183 kts | 301° |
| 2026-05-07 18:13 | 42.82388 | -71.32095 | 19999 ft | 207 kts | 304° |
| 2026-05-07 18:13 | 42.83587 | -71.33314 | 20000 ft | 222 kts | 306° |
| 2026-05-07 18:13 | 42.84866 | -71.34593 | 19996 ft | 233 kts | 307° |
| 2026-05-07 18:14 | 42.86185 | -71.35910 | 19990 ft | 236 kts | 307° |
| 2026-05-07 18:14 | 42.87510 | -71.37235 | 19982 ft | 234 kts | 307° |
| 2026-05-07 18:14 | 42.88811 | -71.38548 | 19983 ft | 231 kts | 306° |
| 2026-05-07 18:14 | 42.90097 | -71.39864 | 19987 ft | 230 kts | 306° |
| 2026-05-07 18:15 | 42.91372 | -71.41183 | 19990 ft | 230 kts | 306° |
| 2026-05-07 18:15 | 42.92654 | -71.42515 | 19996 ft | 232 kts | 306° |
| 2026-05-07 18:15 | 42.93945 | -71.43851 | 19992 ft | 233 kts | 306° |
| 2026-05-07 18:15 | 42.95239 | -71.45186 | 19994 ft | 233 kts | 306° |
| 2026-05-07 18:16 | 42.96535 | -71.46522 | 19995 ft | 233 kts | 306° |
| 2026-05-07 18:16 | 42.97827 | -71.47851 | 19994 ft | 232 kts | 306° |
| 2026-05-07 18:16 | 42.99117 | -71.49179 | 19994 ft | 232 kts | 306° |
| 2026-05-07 18:16 | 43.00404 | -71.50507 | 19996 ft | 232 kts | 306° |
| 2026-05-07 18:17 | 43.01687 | -71.51836 | 20000 ft | 231 kts | 305° |
| 2026-05-07 18:17 | 43.02953 | -71.53155 | 19993 ft | 231 kts | 305° |
| 2026-05-07 18:17 | 43.04233 | -71.54485 | 19989 ft | 231 kts | 305° |
| 2026-05-07 18:17 | 43.05512 | -71.55811 | 19993 ft | 230 kts | 305° |
| 2026-05-07 18:18 | 43.06788 | -71.57133 | 20001 ft | 230 kts | 305° |
| 2026-05-07 18:18 | 43.08060 | -71.58453 | 19998 ft | 229 kts | 305° |
| 2026-05-07 18:18 | 43.09327 | -71.59769 | 19996 ft | 228 kts | 305° |
| 2026-05-07 18:18 | 43.10585 | -71.61079 | 20010 ft | 228 kts | 305° |
| 2026-05-07 18:19 | 43.11847 | -71.62398 | 20015 ft | 228 kts | 305° |
| 2026-05-07 18:19 | 43.13113 | -71.63724 | 20016 ft | 230 kts | 305° |
| 2026-05-07 18:19 | 43.14384 | -71.65052 | 20005 ft | 230 kts | 305° |
| 2026-05-07 18:19 | 43.15656 | -71.66381 | 20004 ft | 230 kts | 305° |
| 2026-05-07 18:20 | 43.16931 | -71.67711 | 20003 ft | 230 kts | 305° |
| 2026-05-07 18:20 | 43.18202 | -71.69041 | 20006 ft | 230 kts | 305° |
| 2026-05-07 18:20 | 43.19459 | -71.70354 | 20009 ft | 231 kts | 305° |
| 2026-05-07 18:20 | 43.20735 | -71.71689 | 20010 ft | 231 kts | 305° |
| 2026-05-07 18:21 | 43.22029 | -71.73042 | 20008 ft | 231 kts | 305° |
| 2026-05-07 18:21 | 43.23289 | -71.74360 | 20001 ft | 231 kts | 305° |
| 2026-05-07 18:21 | 43.24565 | -71.75694 | 20002 ft | 230 kts | 305° |
| 2026-05-07 18:21 | 43.25836 | -71.77022 | 19998 ft | 229 kts | 305° |
| 2026-05-07 18:22 | 43.27100 | -71.78346 | 20005 ft | 228 kts | 305° |
| 2026-05-07 18:22 | 43.27935 | -71.79224 | 20009 ft | 228 kts | 305° |
| 2026-05-07 18:22 | 43.29622 | -71.81000 | 20011 ft | 229 kts | 305° |
| 2026-05-07 18:22 | 43.30889 | -71.82333 | 20011 ft | 230 kts | 305° |
| 2026-05-07 18:23 | 43.32157 | -71.83668 | 20009 ft | 230 kts | 305° |
| 2026-05-07 18:23 | 43.33426 | -71.85003 | 20011 ft | 230 kts | 305° |
| 2026-05-07 18:23 | 43.34699 | -71.86343 | 20009 ft | 230 kts | 306° |
| 2026-05-07 18:23 | 43.35971 | -71.87681 | 20001 ft | 230 kts | 306° |
| 2026-05-07 18:24 | 43.37241 | -71.89017 | 20011 ft | 230 kts | 306° |
| 2026-05-07 18:24 | 43.38513 | -71.90358 | 20010 ft | 230 kts | 306° |
| 2026-05-07 18:24 | 43.39785 | -71.91699 | 20008 ft | 230 kts | 306° |
| 2026-05-07 18:24 | 43.41053 | -71.93037 | 20009 ft | 230 kts | 306° |
| 2026-05-07 18:25 | 43.42321 | -71.94374 | 20009 ft | 229 kts | 306° |
| 2026-05-07 18:25 | 43.43585 | -71.95709 | 20013 ft | 229 kts | 306° |
| 2026-05-07 18:25 | 43.44852 | -71.97050 | 20017 ft | 230 kts | 306° |
| 2026-05-07 18:25 | 43.46123 | -71.98395 | 20020 ft | 230 kts | 306° |
| 2026-05-07 18:26 | 43.47392 | -71.99741 | 20009 ft | 230 kts | 306° |
| 2026-05-07 18:26 | 43.48647 | -72.01067 | 20020 ft | 230 kts | 306° |
| 2026-05-07 18:26 | 43.49912 | -72.02408 | 20007 ft | 229 kts | 306° |
| 2026-05-07 18:26 | 43.51176 | -72.03748 | 20009 ft | 229 kts | 306° |
| 2026-05-07 18:27 | 43.52437 | -72.05086 | 20013 ft | 229 kts | 306° |
| 2026-05-07 18:27 | 43.53698 | -72.06424 | 20013 ft | 229 kts | 306° |
| 2026-05-07 18:27 | 43.54958 | -72.07762 | 19966 ft | 230 kts | 306° |
| 2026-05-07 18:27 | 43.55814 | -72.08678 | 19907 ft | 231 kts | 306° |
| 2026-05-07 18:28 | 43.57506 | -72.10485 | 19862 ft | 233 kts | 307° |
| 2026-05-07 18:28 | 43.58790 | -72.11840 | 19830 ft | 232 kts | 307° |
| 2026-05-07 18:28 | 43.60065 | -72.13186 | 19820 ft | 230 kts | 307° |
| 2026-05-07 18:28 | 43.61326 | -72.14525 | 19829 ft | 229 kts | 306° |
| 2026-05-07 18:29 | 43.62586 | -72.15868 | 19828 ft | 229 kts | 306° |
| 2026-05-07 18:29 | 43.63843 | -72.17209 | 19826 ft | 228 kts | 306° |
| 2026-05-07 18:29 | 43.65097 | -72.18548 | 19835 ft | 228 kts | 306° |
| 2026-05-07 18:29 | 43.66352 | -72.19887 | 19839 ft | 229 kts | 306° |
| 2026-05-07 18:30 | 43.67580 | -72.21260 | 19835 ft | 222 kts | 300° |
| 2026-05-07 18:30 | 43.68459 | -72.22891 | 19836 ft | 204 kts | 284° |
| 2026-05-07 18:30 | 43.69111 | -72.24638 | 19830 ft | 206 kts | 285° |
| 2026-05-07 18:30 | 43.69816 | -72.26373 | 19828 ft | 207 kts | 287° |
| 2026-05-07 18:31 | 43.70534 | -72.28097 | 19821 ft | 208 kts | 287° |
| 2026-05-07 18:31 | 43.71245 | -72.29782 | 19537 ft | 197 kts | 287° |
| 2026-05-07 18:31 | 43.71923 | -72.31372 | 19272 ft | 188 kts | 287° |
| 2026-05-07 18:31 | 43.72570 | -72.32942 | 19020 ft | 189 kts | 286° |
| 2026-05-07 18:32 | 43.73212 | -72.34552 | 18768 ft | 193 kts | 286° |
| 2026-05-07 18:32 | 43.73862 | -72.36192 | 18529 ft | 196 kts | 286° |
| 2026-05-07 18:32 | 43.74521 | -72.37847 | 18293 ft | 198 kts | 287° |
| 2026-05-07 18:32 | 43.75189 | -72.39518 | 18059 ft | 199 kts | 287° |
| 2026-05-07 18:33 | 43.75866 | -72.41196 | 17794 ft | 201 kts | 290° |
| 2026-05-07 18:33 | 43.76927 | -72.42603 | 17496 ft | 228 kts | 317° |
| 2026-05-07 18:33 | 43.78358 | -72.43592 | 17267 ft | 230 kts | 319° |
| 2026-05-07 18:33 | 43.79774 | -72.44603 | 17044 ft | 228 kts | 317° |
| 2026-05-07 18:34 | 43.81170 | -72.45640 | 16633 ft | 226 kts | 319° |
| 2026-05-07 18:34 | 43.82470 | -72.46660 | 16580 ft | 210 kts | 315° |
| 2026-05-07 18:34 | 43.83758 | -72.47678 | 16299 ft | 217 kts | 316° |
| 2026-05-07 18:34 | 43.85097 | -72.48705 | 15994 ft | 222 kts | 318° |
| 2026-05-07 18:35 | 43.86465 | -72.49733 | 15699 ft | 225 kts | 318° |
| 2026-05-07 18:35 | 43.87843 | -72.50764 | 15383 ft | 225 kts | 318° |
| 2026-05-07 18:35 | 43.89218 | -72.51792 | 15137 ft | 224 kts | 319° |
| 2026-05-07 18:35 | 43.90557 | -72.52782 | 14854 ft | 206 kts | 319° |
| 2026-05-07 18:36 | 43.91803 | -72.53704 | 14538 ft | 200 kts | 318° |
| 2026-05-07 18:36 | 43.93016 | -72.54626 | 14238 ft | 198 kts | 317° |
| 2026-05-07 18:36 | 43.94212 | -72.55546 | 13954 ft | 196 kts | 317° |
| 2026-05-07 18:36 | 43.95010 | -72.56167 | 13755 ft | 202 kts | 318° |
| 2026-05-07 18:37 | 43.96675 | -72.57466 | 13431 ft | 208 kts | 319° |
| 2026-05-07 18:37 | 43.97944 | -72.58442 | 13174 ft | 209 kts | 320° |
| 2026-05-07 18:37 | 43.98790 | -72.59087 | 13006 ft | 210 kts | 320° |
| 2026-05-07 18:37 | 44.00072 | -72.60062 | 12735 ft | 210 kts | 320° |
| 2026-05-07 18:38 | 44.01346 | -72.61027 | 12453 ft | 206 kts | 321° |
| 2026-05-07 18:38 | 44.02594 | -72.61966 | 12171 ft | 202 kts | 321° |
| 2026-05-07 18:38 | 44.03828 | -72.62906 | 11880 ft | 203 kts | 322° |
| 2026-05-07 18:38 | 44.05074 | -72.63862 | 11615 ft | 205 kts | 322° |
| 2026-05-07 18:39 | 44.06319 | -72.64822 | 11293 ft | 205 kts | 322° |
| 2026-05-07 18:39 | 44.07565 | -72.65782 | 10984 ft | 204 kts | 322° |
| 2026-05-07 18:39 | 44.08811 | -72.66733 | 10634 ft | 204 kts | 323° |
| 2026-05-07 18:39 | 44.10051 | -72.67685 | 10403 ft | 200 kts | 323° |
| 2026-05-07 18:40 | 44.11240 | -72.68605 | 10111 ft | 194 kts | 323° |
| 2026-05-07 18:40 | 44.12416 | -72.69521 | 9831 ft | 193 kts | 323° |
| 2026-05-07 18:40 | 44.13586 | -72.70427 | 9545 ft | 191 kts | 323° |
| 2026-05-07 18:40 | 44.14729 | -72.71313 | 9266 ft | 189 kts | 324° |
| 2026-05-07 18:41 | 44.15885 | -72.72197 | 8964 ft | 186 kts | 324° |
| 2026-05-07 18:41 | 44.16997 | -72.73054 | 8642 ft | 185 kts | 324° |
| 2026-05-07 18:41 | 44.18124 | -72.73926 | 8316 ft | 186 kts | 325° |
| 2026-05-07 18:41 | 44.19255 | -72.74798 | 8021 ft | 187 kts | 325° |
| 2026-05-07 18:42 | 44.20386 | -72.75669 | 7779 ft | 183 kts | 325° |
| 2026-05-07 18:42 | 44.21499 | -72.76525 | 7523 ft | 182 kts | 325° |
| 2026-05-07 18:42 | 44.22603 | -72.77375 | 7273 ft | 181 kts | 325° |
| 2026-05-07 18:42 | 44.23707 | -72.78229 | 7069 ft | 179 kts | 325° |
| 2026-05-07 18:43 | 44.24754 | -72.79175 | 7030 ft | 184 kts | 315° |
| 2026-05-07 18:43 | 44.25615 | -72.80525 | 7012 ft | 189 kts | 305° |
| 2026-05-07 18:43 | 44.26478 | -72.81934 | 6997 ft | 186 kts | 308° |
| 2026-05-07 18:43 | 44.27242 | -72.83096 | 6969 ft | 146 kts | 307° |
| 2026-05-07 18:44 | 44.27953 | -72.84216 | 6728 ft | 163 kts | 307° |
| 2026-05-07 18:44 | 44.28721 | -72.85450 | 6524 ft | 173 kts | 308° |
| 2026-05-07 18:44 | 44.29525 | -72.86735 | 6136 ft | 178 kts | 308° |
| 2026-05-07 18:44 | 44.30339 | -72.88024 | 5647 ft | 176 kts | 308° |
| 2026-05-07 18:45 | 44.31144 | -72.89294 | 5353 ft | 173 kts | 308° |
| 2026-05-07 18:45 | 44.31914 | -72.90527 | 5022 ft | 169 kts | 308° |
| 2026-05-07 18:45 | 44.32687 | -72.91764 | 4747 ft | 166 kts | 307° |
| 2026-05-07 18:45 | 44.33443 | -72.92976 | 4718 ft | 168 kts | 308° |
| 2026-05-07 18:46 | 44.34214 | -72.94224 | 4506 ft | 170 kts | 308° |
| 2026-05-07 18:46 | 44.34964 | -72.95412 | 4205 ft | 166 kts | 308° |
| 2026-05-07 18:46 | 44.35749 | -72.96666 | 3931 ft | 176 kts | 308° |
| 2026-05-07 18:46 | 44.36463 | -72.97809 | 3680 ft | 131 kts | 308° |
| 2026-05-07 18:47 | 44.37036 | -72.98750 | 3514 ft | 128 kts | 306° |
| 2026-05-07 18:47 | 44.37615 | -72.99712 | 3336 ft | 130 kts | 306° |
| 2026-05-07 18:47 | 44.38210 | -73.00672 | 3145 ft | 130 kts | 307° |
| 2026-05-07 18:47 | 44.38800 | -73.01603 | 2961 ft | 126 kts | 307° |
| 2026-05-07 18:48 | 44.39360 | -73.02498 | 2768 ft | 110 kts | 306° |
| 2026-05-07 18:48 | 44.39808 | -73.03229 | 2656 ft | 103 kts | 304° |
| 2026-05-07 18:48 | 44.40290 | -73.04041 | 2475 ft | 109 kts | 306° |
| 2026-05-07 18:48 | 44.40784 | -73.04819 | 2311 ft | 105 kts | 306° |
| 2026-05-07 18:49 | 44.41275 | -73.05623 | 2151 ft | 114 kts | 306° |
| 2026-05-07 18:49 | 44.41795 | -73.06454 | 2000 ft | 114 kts | 306° |
| 2026-05-07 18:49 | 44.42309 | -73.07277 | 1834 ft | 109 kts | 306° |
| 2026-05-07 18:49 | 44.42777 | -73.08036 | 1643 ft | 99 kts | 307° |
| 2026-05-07 18:50 | 44.43248 | -73.08805 | 1508 ft | 109 kts | 307° |
| 2026-05-07 18:50 | 44.43756 | -73.09614 | 1341 ft | 111 kts | 306° |